createdAt,value
2023-03-12T01:46:36.597Z,8.00
2023-03-12T01:49:15.125Z,6.70
2023-03-12T01:51:51.407Z,7.50
2023-03-12T01:54:24.061Z,8.00
2023-03-12T01:56:54.763Z,7.10
2023-03-12T01:59:47.723Z,7.00
2023-03-12T02:02:15.527Z,6.20
2023-03-12T02:04:42.978Z,6.20
2023-03-12T02:07:11.939Z,6.70
2023-03-12T02:09:51.011Z,7.50
2023-03-12T02:12:18.442Z,6.20
2023-03-12T02:14:47.888Z,7.20
2023-03-12T02:17:17.568Z,6.70
2023-03-12T02:20:17.882Z,6.80
2023-03-12T02:22:49.397Z,6.30
2023-03-12T02:25:42.320Z,6.70
2023-03-12T02:28:13.239Z,6.70
2023-03-12T02:30:48.579Z,7.30
2023-03-12T02:33:23.909Z,6.70
2023-03-12T02:35:52.635Z,6.80
2023-03-12T02:38:35.449Z,8.10
2023-03-12T02:41:13.881Z,7.80
2023-03-12T02:43:46.008Z,7.80
2023-03-12T02:46:13.469Z,8.80
2023-03-12T02:48:40.649Z,8.40
2023-03-12T02:51:07.586Z,8.70
2023-03-12T02:53:34.914Z,8.40
2023-03-12T02:56:04.691Z,10.50
2023-03-12T02:58:35.794Z,10.80
2023-03-12T03:01:07.161Z,10.10
2023-03-12T03:03:34.491Z,9.80
2023-03-12T03:06:01.426Z,9.30
2023-03-12T03:08:35.003Z,8.60
2023-03-12T03:11:03.031Z,8.90
2023-03-12T03:13:30.361Z,9.40
2023-03-12T03:16:00.203Z,9.30
2023-03-12T03:18:29.376Z,8.20
2023-03-12T03:20:57.830Z,9.00
2023-03-12T03:23:26.856Z,7.30
2023-03-12T03:25:54.171Z,7.00
2023-03-12T03:28:24.458Z,7.10
2023-03-12T03:31:07.268Z,5.50
2023-03-12T03:33:38.170Z,6.40
2023-03-12T03:36:06.779Z,5.60
2023-03-12T03:38:43.879Z,5.00
2023-03-12T03:41:18.771Z,5.80
2023-03-12T03:43:47.506Z,4.70
2023-03-12T03:46:17.791Z,4.90
2023-03-12T03:48:51.047Z,3.10
2023-03-12T03:51:26.227Z,2.20
2023-03-12T03:56:32.236Z,1.80
2023-03-12T04:01:56.710Z,1.70
2023-03-12T04:04:29.852Z,1.70
2023-03-12T04:07:35.681Z,1.70
2023-03-12T04:10:31.447Z,4.50
2023-03-12T04:13:12.667Z,5.80
2023-03-12T04:15:51.051Z,1.30
2023-03-12T04:18:33.562Z,1.20
2023-03-12T04:21:04.056Z,1.30
2023-03-12T04:23:32.533Z,2.10
2023-03-12T04:28:52.550Z,2.00
2023-03-12T04:31:20.994Z,2.50
2023-03-12T04:33:55.433Z,2.80
2023-03-12T04:36:45.931Z,2.70
2023-03-12T04:39:42.984Z,1.30
2023-03-12T04:42:53.460Z,1.10
2023-03-12T04:45:35.355Z,0.90
2023-03-12T04:48:33.438Z,3.60
2023-03-12T04:51:07.632Z,4.90
2023-03-12T04:53:36.542Z,6.20
2023-03-12T04:56:30.099Z,10.40
2023-03-12T04:59:11.885Z,11.60
2023-03-12T05:01:47.146Z,14.20
2023-03-12T05:04:27.354Z,15.40
2023-03-12T05:07:07.620Z,17.50
2023-03-12T05:09:45.046Z,19.00
2023-03-12T05:12:17.917Z,23.10
2023-03-12T05:15:31.278Z,24.80
2023-03-12T05:18:22.008Z,27.00
2023-03-12T05:24:58.952Z,28.60
2023-03-12T05:28:03.745Z,24.60
2023-03-12T05:30:36.893Z,17.10
2023-03-12T05:33:05.507Z,10.20
2023-03-12T05:35:39.898Z,6.20
2023-03-12T05:38:12.097Z,4.00
2023-03-12T05:43:26.773Z,3.10
2023-03-12T05:46:10.184Z,3.30
2023-03-12T05:48:38.602Z,2.70
2023-03-12T05:53:53.955Z,2.60
2023-03-12T05:56:21.306Z,3.10
2023-03-12T05:58:49.683Z,2.80
2023-03-12T06:01:28.603Z,3.40
2023-03-12T06:07:27.141Z,5.50
2023-03-12T06:11:14.678Z,5.90
2023-03-12T06:13:50.208Z,6.30
2023-03-12T06:17:31.165Z,6.50
2023-03-12T06:19:59.140Z,6.40
2023-03-12T06:22:38.860Z,6.30
2023-03-12T06:25:10.153Z,6.60
2023-03-12T06:27:39.736Z,7.60
2023-03-12T06:30:08.857Z,7.20
2023-03-12T06:32:36.966Z,8.90
2023-03-12T06:35:07.182Z,8.20
2023-03-12T06:37:35.714Z,8.40
2023-03-12T06:40:12.809Z,10.10
2023-03-12T06:42:54.283Z,9.10
2023-03-12T06:45:23.480Z,8.60
2023-03-12T06:47:55.133Z,8.50
2023-03-12T06:50:24.815Z,9.70
2023-03-12T06:52:52.342Z,8.50
2023-03-12T06:55:21.680Z,10.10
2023-03-12T07:04:17.801Z,9.80
2023-03-12T07:10:14.192Z,9.00
2023-03-12T07:12:57.226Z,10.80
2023-03-12T07:15:35.931Z,9.90
2023-03-12T07:18:10.414Z,9.40
2023-03-12T07:20:43.084Z,9.30
2023-03-12T07:23:12.046Z,9.60
2023-03-12T07:26:05.768Z,8.00
2023-03-12T07:36:39.494Z,7.50
2023-03-12T07:39:15.741Z,8.00
2023-03-12T07:44:38.601Z,9.70
2023-03-12T07:47:22.555Z,9.60
2023-03-12T07:50:12.481Z,9.50
2023-03-12T07:52:46.992Z,10.10
2023-03-12T07:55:26.716Z,8.30
2023-03-12T07:58:09.696Z,6.20
2023-03-12T08:00:44.986Z,5.30
2023-03-12T08:03:15.576Z,5.60
2023-03-12T08:06:33.675Z,6.50
2023-03-12T08:09:02.881Z,4.40
2023-03-12T08:11:59.698Z,3.60
2023-03-12T08:14:46.631Z,2.60
2023-03-12T08:17:29.253Z,3.40
2023-03-12T08:20:14.700Z,2.90
2023-03-12T08:22:47.637Z,2.20
2023-03-12T08:25:23.818Z,2.60
2023-03-12T08:27:51.664Z,2.80
2023-03-12T08:30:18.954Z,2.50
2023-03-12T08:32:53.552Z,2.10
2023-03-12T08:35:30.710Z,2.70
2023-03-12T08:42:01.537Z,1.50
2023-03-12T08:44:42.159Z,1.60
2023-03-12T08:47:12.416Z,4.80
2023-03-12T08:55:42.994Z,5.50
2023-03-12T09:15:04.561Z,1.90
2023-03-12T09:18:18.117Z,1.60
2023-03-12T09:21:02.127Z,1.10
2023-03-12T09:23:46.855Z,1.20
2023-03-12T13:31:58.895Z,7.20
2023-03-12T14:40:47.578Z,2.20
2023-03-12T21:48:44.367Z,10.50
2023-03-12T22:20:38.373Z,7.00
2023-03-12T22:23:18.862Z,7.10
2023-03-12T22:25:49.242Z,8.00
2023-03-12T22:28:19.601Z,6.80
2023-03-12T22:30:49.112Z,6.80
2023-03-12T22:33:17.885Z,6.70
2023-03-12T22:35:47.851Z,10.30
2023-03-12T22:38:18.788Z,10.60
2023-03-12T22:40:55.489Z,9.40
2023-03-12T22:43:27.816Z,11.10
2023-03-12T22:45:58.683Z,10.20
2023-03-12T22:48:29.052Z,9.70
2023-03-12T22:50:58.401Z,8.40
2023-03-12T22:53:33.655Z,7.40
2023-03-12T22:56:05.012Z,7.00
2023-03-12T22:58:35.958Z,6.50
2023-03-12T23:03:57.481Z,7.40
2023-03-12T23:06:27.668Z,6.50
2023-03-12T23:08:56.979Z,7.50
2023-03-12T23:11:33.048Z,7.50
2023-03-12T23:14:01.854Z,8.60
2023-03-12T23:16:34.584Z,8.90
2023-03-12T23:19:11.523Z,8.30
2023-03-12T23:21:42.446Z,9.40
2023-03-12T23:24:16.238Z,9.70
2023-03-12T23:26:47.281Z,10.00
2023-03-12T23:29:16.278Z,8.10
2023-03-12T23:31:45.286Z,9.60
2023-03-12T23:34:14.319Z,10.00
2023-03-12T23:36:48.491Z,9.10
2023-03-12T23:39:17.698Z,9.20
2023-03-12T23:41:46.924Z,8.00
2023-03-12T23:44:18.641Z,8.20
2023-03-12T23:46:48.148Z,7.10
2023-03-12T23:52:34.552Z,4.90
2023-03-12T23:55:08.275Z,4.50
2023-03-12T23:57:42.486Z,3.60
